sensor_id;sensor_type;location;lat;lon;timestamp;pressure;altitude;pressure_sealevel;temperature;humidity
75775;BME280;64505;51.458;7.556;2023-09-30T00:00:25;100684.94;;;11.56;100.00
75775;BME280;64505;51.458;7.556;2023-09-30T00:02:27;100693.31;;;11.53;100.00
75775;BME280;64505;51.458;7.556;2023-09-30T00:04:29;100698.19;;;11.56;100.00
75775;BME280;64505;51.458;7.556;2023-09-30T00:06:31;100697.38;;;11.49;100.00
75775;BME280;64505;51.458;7.556;2023-09-30T00:08:33;100698.19;;;11.50;100.00
75775;BME280;64505;51.458;7.556;2023-09-30T00:10:34;100703.88;;;11.47;100.00
75775;BME280;64505;51.458;7.556;2023-09-30T00:12:36;100699.63;;;11.46;100.00
75775;BME280;64505;51.458;7.556;2023-09-30T00:14:38;100697.16;;;11.44;100.00
75775;BME280;64505;51.458;7.556;2023-09-30T00:16:39;100698.19;;;11.43;100.00
75775;BME280;64505;51.458;7.556;2023-09-30T00:18:41;100698.41;;;11.42;100.00
75775;BME280;64505;51.458;7.556;2023-09-30T00:20:42;100694.34;;;11.39;100.00
75775;BME280;64505;51.458;7.556;2023-09-30T00:22:44;100697.75;;;11.40;100.00
75775;BME280;64505;51.458;7.556;2023-09-30T00:24:46;100690.03;;;11.38;100.00
75775;BME280;64505;51.458;7.556;2023-09-30T00:26:48;100694.72;;;11.36;100.00
75775;BME280;64505;51.458;7.556;2023-09-30T00:28:51;100698.41;;;11.35;100.00
75775;BME280;64505;51.458;7.556;2023-09-30T00:30:53;100705.72;;;11.33;100.00
75775;BME280;64505;51.458;7.556;2023-09-30T00:32:55;100715.50;;;11.32;100.00
75775;BME280;64505;51.458;7.556;2023-09-30T00:34:56;100727.13;;;11.38;100.00
75775;BME280;64505;51.458;7.556;2023-09-30T00:36:58;100729.34;;;11.41;100.00
75775;BME280;64505;51.458;7.556;2023-09-30T00:38:59;100722.00;;;11.36;100.00
75775;BME280;64505;51.458;7.556;2023-09-30T00:41:01;100712.47;;;11.35;100.00
75775;BME280;64505;51.458;7.556;2023-09-30T00:43:02;100714.06;;;11.36;100.00
75775;BME280;64505;51.458;7.556;2023-09-30T00:45:05;100707.75;;;11.38;100.00
75775;BME280;64505;51.458;7.556;2023-09-30T00:47:10;100708.78;;;11.36;100.00
75775;BME280;64505;51.458;7.556;2023-09-30T00:49:13;100708.78;;;11.36;100.00
75775;BME280;64505;51.458;7.556;2023-09-30T00:51:15;100702.88;;;11.34;100.00
75775;BME280;64505;51.458;7.556;2023-09-30T00:53:17;100695.53;;;11.36;100.00
75775;BME280;64505;51.458;7.556;2023-09-30T00:55:19;100700.81;;;11.36;100.00
75775;BME280;64505;51.458;7.556;2023-09-30T00:57:21;100709.41;;;11.39;100.00
75775;BME280;64505;51.458;7.556;2023-09-30T00:59:24;100715.50;;;11.39;100.00
75775;BME280;64505;51.458;7.556;2023-09-30T01:01:28;100706.53;;;11.40;100.00
75775;BME280;64505;51.458;7.556;2023-09-30T01:03:29;100699.81;;;11.44;100.00
75775;BME280;64505;51.458;7.556;2023-09-30T01:05:31;100687.81;;;11.42;100.00
75775;BME280;64505;51.458;7.556;2023-09-30T01:07:34;100681.69;;;11.41;100.00
75775;BME280;64505;51.458;7.556;2023-09-30T01:09:35;100676.59;;;11.40;100.00
75775;BME280;64505;51.458;7.556;2023-09-30T01:11:39;100679.66;;;11.36;100.00
75775;BME280;64505;51.458;7.556;2023-09-30T01:13:41;100691.06;;;11.37;100.00
75775;BME280;64505;51.458;7.556;2023-09-30T01:15:46;100693.69;;;11.37;100.00
75775;BME280;64505;51.458;7.556;2023-09-30T01:17:48;100707.97;;;11.43;100.00
75775;BME280;64505;51.458;7.556;2023-09-30T01:19:51;100721.22;;;11.43;100.00
75775;BME280;64505;51.458;7.556;2023-09-30T01:21:57;100722.63;;;11.45;100.00
75775;BME280;64505;51.458;7.556;2023-09-30T01:24:00;100722.41;;;11.47;100.00
75775;BME280;64505;51.458;7.556;2023-09-30T01:26:03;100710.81;;;11.48;100.00
75775;BME280;64505;51.458;7.556;2023-09-30T01:28:08;100699.03;;;11.50;100.00
75775;BME280;64505;51.458;7.556;2023-09-30T01:30:10;100702.88;;;11.48;100.00
75775;BME280;64505;51.458;7.556;2023-09-30T01:32:12;100703.69;;;11.48;100.00
75775;BME280;64505;51.458;7.556;2023-09-30T01:34:16;100712.25;;;11.50;100.00
75775;BME280;64505;51.458;7.556;2023-09-30T01:36:17;100697.38;;;11.49;100.00
75775;BME280;64505;51.458;7.556;2023-09-30T01:38:19;100699.63;;;11.46;100.00
75775;BME280;64505;51.458;7.556;2023-09-30T01:40:21;100691.88;;;11.44;100.00
75775;BME280;64505;51.458;7.556;2023-09-30T01:42:23;100691.06;;;11.44;100.00
75775;BME280;64505;51.458;7.556;2023-09-30T01:44:25;100688.00;;;11.40;100.00
75775;BME280;64505;51.458;7.556;2023-09-30T01:46:27;100696.75;;;11.41;100.00
75775;BME280;64505;51.458;7.556;2023-09-30T01:48:28;100697.56;;;11.41;100.00
75775;BME280;64505;51.458;7.556;2023-09-30T01:50:30;100700.44;;;11.46;100.00
75775;BME280;64505;51.458;7.556;2023-09-30T01:52:31;100698.81;;;11.45;100.00
75775;BME280;64505;51.458;7.556;2023-09-30T01:54:33;100697.38;;;11.43;100.00
75775;BME280;64505;51.458;7.556;2023-09-30T01:56:34;100702.03;;;11.47;100.00
75775;BME280;64505;51.458;7.556;2023-09-30T01:58:36;100707.97;;;11.49;100.00
75775;BME280;64505;51.458;7.556;2023-09-30T02:00:37;100715.09;;;11.49;100.00
75775;BME280;64505;51.458;7.556;2023-09-30T02:02:39;100723.03;;;11.49;100.00
75775;BME280;64505;51.458;7.556;2023-09-30T02:04:40;100735.69;;;11.53;100.00
75775;BME280;64505;51.458;7.556;2023-09-30T02:06:42;100744.03;;;11.50;100.00
75775;BME280;64505;51.458;7.556;2023-09-30T02:08:44;100754.00;;;11.48;100.00
75775;BME280;64505;51.458;7.556;2023-09-30T02:10:46;100731.81;;;11.49;100.00
75775;BME280;64505;51.458;7.556;2023-09-30T02:12:47;100707.75;;;11.51;100.00
75775;BME280;64505;51.458;7.556;2023-09-30T02:14:49;100706.97;;;11.50;100.00
75775;BME280;64505;51.458;7.556;2023-09-30T02:16:51;100719.38;;;11.50;100.00
75775;BME280;64505;51.458;7.556;2023-09-30T02:18:53;100733.63;;;11.49;100.00
75775;BME280;64505;51.458;7.556;2023-09-30T02:20:55;100737.31;;;11.48;100.00
75775;BME280;64505;51.458;7.556;2023-09-30T02:22:56;100742.81;;;11.46;100.00
75775;BME280;64505;51.458;7.556;2023-09-30T02:25:00;100742.00;;;11.46;100.00
75775;BME280;64505;51.458;7.556;2023-09-30T02:27:01;100727.13;;;11.45;100.00
75775;BME280;64505;51.458;7.556;2023-09-30T02:29:03;100727.72;;;11.47;100.00
75775;BME280;64505;51.458;7.556;2023-09-30T02:31:04;100728.53;;;11.47;100.00
75775;BME280;64505;51.458;7.556;2023-09-30T02:33:08;100724.47;;;11.45;100.00
75775;BME280;64505;51.458;7.556;2023-09-30T02:35:10;100718.34;;;11.44;100.00
75775;BME280;64505;51.458;7.556;2023-09-30T02:37:12;100736.06;;;11.44;100.00
75775;BME280;64505;51.458;7.556;2023-09-30T02:39:13;100730.78;;;11.44;100.00
75775;BME280;64505;51.458;7.556;2023-09-30T02:41:17;100739.13;;;11.41;100.00
75775;BME280;64505;51.458;7.556;2023-09-30T02:43:19;100725.28;;;11.39;100.00
75775;BME280;64505;51.458;7.556;2023-09-30T02:45:21;100718.53;;;11.36;100.00
75775;BME280;64505;51.458;7.556;2023-09-30T02:47:23;100709.00;;;11.35;100.00
75775;BME280;64505;51.458;7.556;2023-09-30T02:49:24;100706.53;;;11.33;100.00
75775;BME280;64505;51.458;7.556;2023-09-30T02:51:26;100703.06;;;11.33;100.00
75775;BME280;64505;51.458;7.556;2023-09-30T02:53:27;100713.06;;;11.31;100.00
75775;BME280;64505;51.458;7.556;2023-09-30T02:55:29;100704.50;;;11.22;100.00
75775;BME280;64505;51.458;7.556;2023-09-30T02:57:30;100703.28;;;11.25;100.00
75775;BME280;64505;51.458;7.556;2023-09-30T02:59:33;100710.59;;;11.23;100.00
75775;BME280;64505;51.458;7.556;2023-09-30T03:01:34;100719.38;;;11.17;100.00
75775;BME280;64505;51.458;7.556;2023-09-30T03:03:36;100722.00;;;11.17;100.00
75775;BME280;64505;51.458;7.556;2023-09-30T03:05:37;100728.31;;;11.16;100.00
75775;BME280;64505;51.458;7.556;2023-09-30T03:07:39;100733.19;;;11.12;100.00
75775;BME280;64505;51.458;7.556;2023-09-30T03:09:41;100732.38;;;11.12;100.00
75775;BME280;64505;51.458;7.556;2023-09-30T03:11:43;100733.59;;;11.09;100.00
75775;BME280;64505;51.458;7.556;2023-09-30T03:13:45;100742.97;;;11.12;100.00
75775;BME280;64505;51.458;7.556;2023-09-30T03:15:47;100741.31;;;11.11;100.00
75775;BME280;64505;51.458;7.556;2023-09-30T03:17:50;100745.59;;;11.12;100.00
75775;BME280;64505;51.458;7.556;2023-09-30T03:19:54;100739.72;;;11.10;100.00
75775;BME280;64505;51.458;7.556;2023-09-30T03:21:58;100733.78;;;11.08;100.00
75775;BME280;64505;51.458;7.556;2023-09-30T03:23:59;100735.63;;;11.07;100.00
75775;BME280;64505;51.458;7.556;2023-09-30T03:26:01;100734.00;;;11.06;100.00
75775;BME280;64505;51.458;7.556;2023-09-30T03:28:02;100732.56;;;11.04;100.00
75775;BME280;64505;51.458;7.556;2023-09-30T03:30:08;100737.06;;;11.03;100.00
75775;BME280;64505;51.458;7.556;2023-09-30T03:32:10;100724.84;;;11.02;100.00
75775;BME280;64505;51.458;7.556;2023-09-30T03:34:11;100719.94;;;10.99;100.00
75775;BME280;64505;51.458;7.556;2023-09-30T03:36:15;100717.69;;;10.96;100.00
75775;BME280;64505;51.458;7.556;2023-09-30T03:38:16;100728.66;;;10.93;100.00
75775;BME280;64505;51.458;7.556;2023-09-30T03:40:19;100727.25;;;10.91;100.00
75775;BME280;64505;51.458;7.556;2023-09-30T03:42:22;100726.41;;;10.90;100.00
75775;BME280;64505;51.458;7.556;2023-09-30T03:44:23;100725.41;;;10.84;100.00
75775;BME280;64505;51.458;7.556;2023-09-30T03:46:25;100725.41;;;10.84;100.00
75775;BME280;64505;51.458;7.556;2023-09-30T03:48:27;100729.06;;;10.83;100.00
75775;BME280;64505;51.458;7.556;2023-09-30T03:50:29;100725.59;;;10.90;100.00
75775;BME280;64505;51.458;7.556;2023-09-30T03:52:34;100726.41;;;10.83;100.00
75775;BME280;64505;51.458;7.556;2023-09-30T03:54:35;100723.16;;;10.81;100.00
75775;BME280;64505;51.458;7.556;2023-09-30T03:56:37;100714.41;;;10.81;100.00
75775;BME280;64505;51.458;7.556;2023-09-30T03:58:41;100717.06;;;10.88;100.00
75775;BME280;64505;51.458;7.556;2023-09-30T04:00:43;100717.25;;;10.86;100.00
75775;BME280;64505;51.458;7.556;2023-09-30T04:02:45;100718.47;;;10.90;100.00
75775;BME280;64505;51.458;7.556;2023-09-30T04:04:50;100723.59;;;10.85;100.00
75775;BME280;64505;51.458;7.556;2023-09-30T04:06:54;100718.88;;;10.80;100.00
75775;BME280;64505;51.458;7.556;2023-09-30T04:08:56;100715.22;;;10.81;100.00
75775;BME280;64505;51.458;7.556;2023-09-30T04:11:00;100711.94;;;10.79;100.00
75775;BME280;64505;51.458;7.556;2023-09-30T04:13:02;100719.88;;;10.79;100.00
75775;BME280;64505;51.458;7.556;2023-09-30T04:15:03;100720.28;;;10.76;100.00
75775;BME280;64505;51.458;7.556;2023-09-30T04:17:06;100722.13;;;10.76;100.00
75775;BME280;64505;51.458;7.556;2023-09-30T04:19:08;100728.22;;;10.76;100.00
75775;BME280;64505;51.458;7.556;2023-09-30T04:21:12;100727.59;;;10.74;100.00
75775;BME280;64505;51.458;7.556;2023-09-30T04:23:13;100726.56;;;10.69;100.00
75775;BME280;64505;51.458;7.556;2023-09-30T04:25:16;100729.41;;;10.67;100.00
75775;BME280;64505;51.458;7.556;2023-09-30T04:27:17;100730.44;;;10.66;100.00
75775;BME280;64505;51.458;7.556;2023-09-30T04:29:19;100728.97;;;10.64;100.00
75775;BME280;64505;51.458;7.556;2023-09-30T04:31:20;100724.09;;;10.61;100.00
75775;BME280;64505;51.458;7.556;2023-09-30T04:33:25;100715.56;;;10.59;100.00
75775;BME280;64505;51.458;7.556;2023-09-30T04:35:27;100715.72;;;10.57;100.00
75775;BME280;64505;51.458;7.556;2023-09-30T04:37:31;100716.56;;;10.58;100.00
75775;BME280;64505;51.458;7.556;2023-09-30T04:39:33;100730.59;;;10.58;100.00
75775;BME280;64505;51.458;7.556;2023-09-30T04:41:36;100723.91;;;10.62;100.00
75775;BME280;64505;51.458;7.556;2023-09-30T04:43:38;100727.94;;;10.58;100.00
75775;BME280;64505;51.458;7.556;2023-09-30T04:45:40;100729.97;;;10.56;100.00
75775;BME280;64505;51.458;7.556;2023-09-30T04:47:42;100730.19;;;10.55;100.00
75775;BME280;64505;51.458;7.556;2023-09-30T04:49:46;100739.34;;;10.52;100.00
75775;BME280;64505;51.458;7.556;2023-09-30T04:51:47;100737.88;;;10.50;100.00
75775;BME280;64505;51.458;7.556;2023-09-30T04:53:50;100740.94;;;10.53;100.00
75775;BME280;64505;51.458;7.556;2023-09-30T04:55:52;100746.84;;;10.49;100.00
75775;BME280;64505;51.458;7.556;2023-09-30T04:57:53;100762.88;;;10.47;100.00
75775;BME280;64505;51.458;7.556;2023-09-30T04:59:55;100749.06;;;10.45;100.00
75775;BME280;64505;51.458;7.556;2023-09-30T05:01:56;100750.25;;;10.43;100.00
75775;BME280;64505;51.458;7.556;2023-09-30T05:03:58;100742.31;;;10.43;100.00
75775;BME280;64505;51.458;7.556;2023-09-30T05:06:00;100754.28;;;10.38;100.00
75775;BME280;64505;51.458;7.556;2023-09-30T05:08:02;100758.97;;;10.36;100.00
75775;BME280;64505;51.458;7.556;2023-09-30T05:10:04;100762.84;;;10.34;100.00
75775;BME280;64505;51.458;7.556;2023-09-30T05:12:13;100762.41;;;10.30;100.00
75775;BME280;64505;51.458;7.556;2023-09-30T05:14:14;100768.72;;;10.36;100.00
75775;BME280;64505;51.458;7.556;2023-09-30T05:16:17;100766.66;;;10.31;100.00
75775;BME280;64505;51.458;7.556;2023-09-30T05:18:19;100771.34;;;10.29;100.00
75775;BME280;64505;51.458;7.556;2023-09-30T05:20:21;100762.59;;;10.29;100.00
75775;BME280;64505;51.458;7.556;2023-09-30T05:22:24;100766.25;;;10.28;100.00
75775;BME280;64505;51.458;7.556;2023-09-30T05:24:25;100767.63;;;10.24;100.00
75775;BME280;64505;51.458;7.556;2023-09-30T05:26:27;100765.00;;;10.24;100.00
75775;BME280;64505;51.458;7.556;2023-09-30T05:28:28;100776.16;;;10.19;100.00
75775;BME280;64505;51.458;7.556;2023-09-30T05:30:30;100781.03;;;10.16;100.00
75775;BME280;64505;51.458;7.556;2023-09-30T05:32:32;100789.97;;;10.15;100.00
75775;BME280;64505;51.458;7.556;2023-09-30T05:34:34;100783.47;;;10.17;100.00
75775;BME280;64505;51.458;7.556;2023-09-30T05:36:35;100777.34;;;10.17;100.00
75775;BME280;64505;51.458;7.556;2023-09-30T05:38:37;100777.09;;;10.12;100.00
75775;BME280;64505;51.458;7.556;2023-09-30T05:40:38;100782.38;;;10.12;100.00
75775;BME280;64505;51.458;7.556;2023-09-30T05:42:40;100784.03;;;10.13;100.00
75775;BME280;64505;51.458;7.556;2023-09-30T05:44:44;100790.72;;;10.09;100.00
75775;BME280;64505;51.458;7.556;2023-09-30T05:46:47;100782.78;;;10.09;100.00
75775;BME280;64505;51.458;7.556;2023-09-30T05:48:49;100785.59;;;10.07;100.00
75775;BME280;64505;51.458;7.556;2023-09-30T05:50:51;100788.25;;;10.07;100.00
75775;BME280;64505;51.458;7.556;2023-09-30T05:52:54;100791.13;;;10.12;100.00
75775;BME280;64505;51.458;7.556;2023-09-30T05:54:56;100797.25;;;10.13;100.00
75775;BME280;64505;51.458;7.556;2023-09-30T05:56:58;100795.25;;;10.15;100.00
75775;BME280;64505;51.458;7.556;2023-09-30T05:59:01;100793.41;;;10.15;100.00
75775;BME280;64505;51.458;7.556;2023-09-30T06:01:08;100795.06;;;10.16;100.00
75775;BME280;64505;51.458;7.556;2023-09-30T06:03:12;100791.22;;;10.19;100.00
75775;BME280;64505;51.458;7.556;2023-09-30T06:05:14;100785.09;;;10.18;100.00
75775;BME280;64505;51.458;7.556;2023-09-30T06:07:19;100789.81;;;10.23;100.00
75775;BME280;64505;51.458;7.556;2023-09-30T06:09:21;100782.72;;;10.23;100.00
75775;BME280;64505;51.458;7.556;2023-09-30T06:11:26;100787.59;;;10.26;100.00
75775;BME280;64505;51.458;7.556;2023-09-30T06:13:32;100781.50;;;10.26;100.00
75775;BME280;64505;51.458;7.556;2023-09-30T06:15:40;100779.47;;;10.28;100.00
75775;BME280;64505;51.458;7.556;2023-09-30T06:17:42;100791.50;;;10.30;100.00
75775;BME280;64505;51.458;7.556;2023-09-30T06:19:44;100795.38;;;10.34;100.00
75775;BME280;64505;51.458;7.556;2023-09-30T06:21:46;100794.34;;;10.35;100.00
75775;BME280;64505;51.458;7.556;2023-09-30T06:23:49;100792.94;;;10.40;100.00
75775;BME280;64505;51.458;7.556;2023-09-30T06:25:54;100792.13;;;10.39;100.00
75775;BME280;64505;51.458;7.556;2023-09-30T06:27:56;100790.13;;;10.41;100.00
75775;BME280;64505;51.458;7.556;2023-09-30T06:29:58;100791.38;;;10.45;100.00
75775;BME280;64505;51.458;7.556;2023-09-30T06:31:59;100788.50;;;10.47;100.00
75775;BME280;64505;51.458;7.556;2023-09-30T06:34:01;100792.00;;;10.54;100.00
75775;BME280;64505;51.458;7.556;2023-09-30T06:36:03;100790.22;;;10.61;100.00
75775;BME280;64505;51.458;7.556;2023-09-30T06:38:04;100797.56;;;10.65;100.00
75775;BME280;64505;51.458;7.556;2023-09-30T06:40:09;100797.16;;;10.68;100.00
75775;BME280;64505;51.458;7.556;2023-09-30T06:42:13;100796.38;;;10.74;100.00
75775;BME280;64505;51.458;7.556;2023-09-30T06:44:15;100787.66;;;10.80;100.00
75775;BME280;64505;51.458;7.556;2023-09-30T06:46:16;100791.75;;;10.83;100.00
75775;BME280;64505;51.458;7.556;2023-09-30T06:48:18;100792.38;;;10.85;100.00
75775;BME280;64505;51.458;7.556;2023-09-30T06:50:20;100801.75;;;10.94;100.00
75775;BME280;64505;51.458;7.556;2023-09-30T06:52:23;100813.59;;;10.98;100.00
75775;BME280;64505;51.458;7.556;2023-09-30T06:54:25;100814.81;;;11.02;100.00
75775;BME280;64505;51.458;7.556;2023-09-30T06:56:26;100815.03;;;11.07;100.00
75775;BME280;64505;51.458;7.556;2023-09-30T06:58:28;100823.38;;;11.11;100.00
75775;BME280;64505;51.458;7.556;2023-09-30T07:00:30;100825.84;;;11.12;100.00
75775;BME280;64505;51.458;7.556;2023-09-30T07:02:31;100821.78;;;11.16;100.00
75775;BME280;64505;51.458;7.556;2023-09-30T07:04:33;100819.97;;;11.23;100.00
75775;BME280;64505;51.458;7.556;2023-09-30T07:06:35;100828.50;;;11.25;100.00
75775;BME280;64505;51.458;7.556;2023-09-30T07:08:37;100830.81;;;11.35;100.00
75775;BME280;64505;51.458;7.556;2023-09-30T07:10:39;100823.88;;;11.41;100.00
75775;BME280;64505;51.458;7.556;2023-09-30T07:12:41;100825.94;;;11.45;100.00
75775;BME280;64505;51.458;7.556;2023-09-30T07:14:43;100832.25;;;11.51;100.00
75775;BME280;64505;51.458;7.556;2023-09-30T07:16:45;100840.00;;;11.52;100.00
75775;BME280;64505;51.458;7.556;2023-09-30T07:18:47;100845.94;;;11.61;100.00
75775;BME280;64505;51.458;7.556;2023-09-30T07:20:49;100847.13;;;11.65;100.00
75775;BME280;64505;51.458;7.556;2023-09-30T07:22:51;100841.25;;;11.69;100.00
75775;BME280;64505;51.458;7.556;2023-09-30T07:25:12;100844.16;;;11.74;100.00
75775;BME280;64505;51.458;7.556;2023-09-30T07:27:16;100851.28;;;11.80;100.00
75775;BME280;64505;51.458;7.556;2023-09-30T07:29:28;100853.50;;;11.83;100.00
75775;BME280;64505;51.458;7.556;2023-09-30T07:31:35;100863.31;;;11.90;100.00
75775;BME280;64505;51.458;7.556;2023-09-30T07:33:37;100864.16;;;11.97;100.00
75775;BME280;64505;51.458;7.556;2023-09-30T07:35:39;100867.81;;;11.96;100.00
75775;BME280;64505;51.458;7.556;2023-09-30T07:37:41;100871.09;;;12.04;100.00
75775;BME280;64505;51.458;7.556;2023-09-30T07:39:43;100867.38;;;12.05;100.00
75775;BME280;64505;51.458;7.556;2023-09-30T07:41:45;100868.63;;;12.09;100.00
75775;BME280;64505;51.458;7.556;2023-09-30T07:43:48;100879.44;;;12.14;100.00
75775;BME280;64505;51.458;7.556;2023-09-30T07:45:50;100875.78;;;12.15;100.00
75775;BME280;64505;51.458;7.556;2023-09-30T07:47:52;100887.97;;;12.23;100.00
75775;BME280;64505;51.458;7.556;2023-09-30T07:49:53;100891.25;;;12.25;100.00
75775;BME280;64505;51.458;7.556;2023-09-30T07:51:55;100891.84;;;12.33;100.00
75775;BME280;64505;51.458;7.556;2023-09-30T07:53:57;100888.59;;;12.38;100.00
75775;BME280;64505;51.458;7.556;2023-09-30T07:56:19;100884.31;;;12.44;100.00
75775;BME280;64505;51.458;7.556;2023-09-30T07:58:21;100883.28;;;12.51;100.00
75775;BME280;64505;51.458;7.556;2023-09-30T08:00:23;100897.38;;;12.58;100.00
75775;BME280;64505;51.458;7.556;2023-09-30T08:02:25;100894.28;;;12.61;100.00
75775;BME280;64505;51.458;7.556;2023-09-30T08:04:34;100895.09;;;12.68;100.00
75775;BME280;64505;51.458;7.556;2023-09-30T08:06:35;100891.00;;;12.72;100.00
75775;BME280;64505;51.458;7.556;2023-09-30T08:08:37;100894.66;;;12.78;100.00
75775;BME280;64505;51.458;7.556;2023-09-30T08:10:38;100889.75;;;12.81;100.00
75775;BME280;64505;51.458;7.556;2023-09-30T08:12:40;100884.63;;;12.87;100.00
75775;BME280;64505;51.458;7.556;2023-09-30T08:14:43;100884.19;;;12.96;100.00
75775;BME280;64505;51.458;7.556;2023-09-30T08:16:47;100892.78;;;12.98;100.00
75775;BME280;64505;51.458;7.556;2023-09-30T08:18:50;100894.59;;;13.04;100.00
75775;BME280;64505;51.458;7.556;2023-09-30T08:20:52;100895.22;;;13.13;100.00
75775;BME280;64505;51.458;7.556;2023-09-30T08:22:53;100898.25;;;13.16;100.00
75775;BME280;64505;51.458;7.556;2023-09-30T08:24:55;100898.44;;;13.21;100.00
75775;BME280;64505;51.458;7.556;2023-09-30T08:26:57;100896.34;;;13.30;100.00
75775;BME280;64505;51.458;7.556;2023-09-30T08:28:58;100896.91;;;13.39;100.00
75775;BME280;64505;51.458;7.556;2023-09-30T08:31:03;100901.44;;;13.38;100.00
75775;BME280;64505;51.458;7.556;2023-09-30T08:33:06;100889.31;;;13.49;100.00
75775;BME280;64505;51.458;7.556;2023-09-30T08:35:09;100898.88;;;13.56;100.00
75775;BME280;64505;51.458;7.556;2023-09-30T08:37:11;100908.66;;;13.62;100.00
75775;BME280;64505;51.458;7.556;2023-09-30T08:39:12;100900.84;;;13.67;100.00
75775;BME280;64505;51.458;7.556;2023-09-30T08:41:43;100898.38;;;13.72;100.00
75775;BME280;64505;51.458;7.556;2023-09-30T08:43:46;100903.44;;;13.80;100.00
75775;BME280;64505;51.458;7.556;2023-09-30T08:45:48;100905.22;;;13.87;99.71
75775;BME280;64505;51.458;7.556;2023-09-30T08:47:53;100914.19;;;13.92;99.60
75775;BME280;64505;51.458;7.556;2023-09-30T08:49:59;100910.25;;;14.01;99.17
75775;BME280;64505;51.458;7.556;2023-09-30T08:52:09;100916.44;;;13.95;95.68
75775;BME280;64505;51.458;7.556;2023-09-30T08:54:11;100912.06;;;14.01;95.85
75775;BME280;64505;51.458;7.556;2023-09-30T08:56:14;100911.38;;;14.12;97.06
75775;BME280;64505;51.458;7.556;2023-09-30T08:58:17;100916.88;;;14.17;96.98
75775;BME280;64505;51.458;7.556;2023-09-30T09:00:20;100909.88;;;14.22;95.61
75775;BME280;64505;51.458;7.556;2023-09-30T09:02:24;100913.28;;;14.29;94.26
75775;BME280;64505;51.458;7.556;2023-09-30T09:04:25;100906.31;;;14.35;95.23
75775;BME280;64505;51.458;7.556;2023-09-30T09:06:28;100906.69;;;14.39;92.61
75775;BME280;64505;51.458;7.556;2023-09-30T09:08:31;100914.84;;;14.44;93.26
75775;BME280;64505;51.458;7.556;2023-09-30T09:10:33;100909.09;;;14.47;92.09
75775;BME280;64505;51.458;7.556;2023-09-30T09:12:37;100915.75;;;14.56;93.18
75775;BME280;64505;51.458;7.556;2023-09-30T09:14:41;100915.69;;;14.62;91.37
75775;BME280;64505;51.458;7.556;2023-09-30T09:16:54;100906.84;;;14.68;91.88
75775;BME280;64505;51.458;7.556;2023-09-30T09:18:57;100901.66;;;14.73;91.86
75775;BME280;64505;51.458;7.556;2023-09-30T09:21:26;100887.97;;;14.70;90.75
75775;BME280;64505;51.458;7.556;2023-09-30T09:23:39;100892.78;;;14.79;89.49
75775;BME280;64505;51.458;7.556;2023-09-30T09:25:40;100887.78;;;14.90;90.60
75775;BME280;64505;51.458;7.556;2023-09-30T09:27:42;100875.56;;;15.00;91.27
75775;BME280;64505;51.458;7.556;2023-09-30T09:29:45;100881.69;;;15.01;89.56
75775;BME280;64505;51.458;7.556;2023-09-30T09:31:47;100883.38;;;15.13;91.52
75775;BME280;64505;51.458;7.556;2023-09-30T09:33:50;100880.88;;;15.18;88.87
75775;BME280;64505;51.458;7.556;2023-09-30T09:35:52;100882.81;;;15.11;90.79
75775;BME280;64505;51.458;7.556;2023-09-30T09:37:55;100890.78;;;15.11;91.37
75775;BME280;64505;51.458;7.556;2023-09-30T09:39:57;100894.69;;;15.09;90.63
75775;BME280;64505;51.458;7.556;2023-09-30T09:41:59;100897.22;;;15.04;89.38
75775;BME280;64505;51.458;7.556;2023-09-30T09:44:27;100885.03;;;14.96;88.40
75775;BME280;64505;51.458;7.556;2023-09-30T09:46:29;100890.94;;;14.98;89.92
75775;BME280;64505;51.458;7.556;2023-09-30T09:48:31;100888.41;;;15.03;90.96
75775;BME280;64505;51.458;7.556;2023-09-30T09:50:34;100896.41;;;15.03;90.75
75775;BME280;64505;51.458;7.556;2023-09-30T09:52:37;100898.34;;;15.14;90.22
75775;BME280;64505;51.458;7.556;2023-09-30T09:54:40;100896.91;;;15.30;90.27
75775;BME280;64505;51.458;7.556;2023-09-30T09:56:45;100892.75;;;15.34;87.91
75775;BME280;64505;51.458;7.556;2023-09-30T09:58:48;100888.78;;;15.25;91.25
75775;BME280;64505;51.458;7.556;2023-09-30T10:00:51;100879.97;;;15.24;89.40
75775;BME280;64505;51.458;7.556;2023-09-30T10:02:53;100887.66;;;15.33;88.04
75775;BME280;64505;51.458;7.556;2023-09-30T10:04:55;100874.69;;;15.54;84.08
75775;BME280;64505;51.458;7.556;2023-09-30T10:06:58;100876.97;;;15.81;83.99
75775;BME280;64505;51.458;7.556;2023-09-30T10:09:01;100886.03;;;16.03;85.46
75775;BME280;64505;51.458;7.556;2023-09-30T10:11:03;100891.66;;;16.13;83.35
75775;BME280;64505;51.458;7.556;2023-09-30T10:13:04;100881.31;;;16.16;81.86
75775;BME280;64505;51.458;7.556;2023-09-30T10:17:59;100881.66;;;16.32;78.38
75775;BME280;64505;51.458;7.556;2023-09-30T10:20:06;100892.94;;;16.45;77.46
75775;BME280;64505;51.458;7.556;2023-09-30T10:26:26;100913.97;;;16.77;72.53
75775;BME280;64505;51.458;7.556;2023-09-30T10:28:39;100919.66;;;16.92;75.14
75775;BME280;64505;51.458;7.556;2023-09-30T10:31:08;100910.69;;;16.86;69.92
75775;BME280;64505;51.458;7.556;2023-09-30T10:33:10;100904.63;;;17.14;72.21
75775;BME280;64505;51.458;7.556;2023-09-30T10:35:17;100891.19;;;17.26;71.75
75775;BME280;64505;51.458;7.556;2023-09-30T10:37:21;100895.31;;;17.45;71.56
75775;BME280;64505;51.458;7.556;2023-09-30T10:39:58;100907.56;;;17.69;74.95
75775;BME280;64505;51.458;7.556;2023-09-30T10:42:01;100902.63;;;17.61;71.56
75775;BME280;64505;51.458;7.556;2023-09-30T10:50:52;100912.69;;;18.15;67.34